Bird City, Kansas
Current Conditions -  °F | °C
As of 6:15 AM on Sunday 23 Nov 2014 (Local Time) from KSYF Reporting Station
Broken Clouds Broken Clouds  
Wind Chill: 34°   Ceiling: 9000
Heat Index: 42°   Visibility: 10mi
Dew Point: 22°   Wind: 17mph
Humidity: 44%   Direction: 340°NNW
Pressure: 29.61"   Gusts: 28mph
Location:  39.75°N, 101.53°W
Report Text: KSYF 231215Z AUTO 34015G24KT 10SM BKN090 BKN120 06/M06 A2961 RMK AO2 T00581057
Loading
Personal Weather Stations






























Interactive Weather Map New forecast layout! Learn more

10-Day Weather Forecast

Advertisements
Track Severe Weather on mobile